Hauptseite
METAR-TAF:

METAR-TAF

Flughäfen :

Cerklje ob Krki, Slowenien

Breite: 45-53-59N, Länge: 15-30-55E, Höhe: 157 m

Beobachtung

Neuester Wetterbericht von vor 34 Minuten, um 00:30 UTC
Windstille
Temperatur -2°C
Luftfeuchtigkeit 93%
Luftdruck 1019 hPa
Sichtweite: 8000 m
feuchter Dunst

METAR: LJCE 170030Z AUTO 00000KT 8000 BR NSC M02/M03 Q1019

Zeit: 02:04 (01:04 UTC)

Prognose

Neuester Wetterbericht von vor 2 Stunden und 4 Minuten, um 23:00 UTC
Gültige Prognose vom 17 um 00 UTC bis 17 um 09 UTC
Wind 2 kt aus unterschiedlichen Richtungen
Sichtweite: 7000 m

TAF: LJCE 162300Z 1700/1709 VRB02KT 7000 NSC

Wetterbeobachtungen und Prognosen von mehr als 4000 Flughäfen (METAR und TAF Bericht).

Die verfügbaren Stationen werden durch gelbe und rote Markierungen auf der Karte dargestellt.

Führen Sie die Maus auf sie, um den Namen der Station zu sehen.

Darauf klicken, um die Beobachtung von Wetterbeobachtungen und Prognosen zu sehen.

Um die Karte zu ändern : klicken Sie auf den grünen Tasten mit einem schwarzen Kreuz Zum Vergrößern, auf den grünen Button mit einem Gedankenstrich zu verkleinern, oder auf die grünen Pfeile für benachbarte Karten.


METAR-TAF: